createdAt,value
2017-11-13T00:00:15.735Z,0
2017-11-13T00:01:15.369Z,0
2017-11-13T00:02:15.347Z,0
2017-11-13T00:03:15.670Z,0
2017-11-13T00:04:15.330Z,0
2017-11-13T00:05:15.635Z,0
2017-11-13T00:06:15.624Z,0
2017-11-13T00:07:15.613Z,0
2017-11-13T00:08:15.609Z,0
2017-11-13T00:09:15.595Z,0
2017-11-13T00:10:15.562Z,0
2017-11-13T00:11:15.585Z,0
2017-11-13T00:12:15.540Z,0
2017-11-13T00:13:15.211Z,0
2017-11-13T00:14:15.515Z,0
2017-11-13T00:15:15.506Z,0
2017-11-13T00:16:15.523Z,0
2017-11-13T00:17:15.155Z,0
2017-11-13T00:18:14.810Z,0
2017-11-13T00:19:15.450Z,0
2017-11-13T00:20:15.436Z,0
2017-11-13T00:21:15.442Z,0
2017-11-13T00:22:15.430Z,0
2017-11-13T00:23:15.408Z,0
2017-11-13T00:24:15.378Z,0
2017-11-13T00:25:15.394Z,0
2017-11-13T00:26:15.372Z,0
2017-11-13T00:27:15.038Z,0
2017-11-13T00:28:15.329Z,0
2017-11-13T00:29:14.983Z,0
2017-11-13T00:30:15.301Z,0
2017-11-13T00:31:15.292Z,0
2017-11-13T00:32:14.944Z,0
2017-11-13T00:33:15.263Z,0
2017-11-13T00:34:15.251Z,0
2017-11-13T00:35:15.235Z,0
2017-11-13T00:36:14.896Z,0
2017-11-13T00:37:14.880Z,0
2017-11-13T00:38:14.871Z,0
2017-11-13T00:39:15.188Z,0
2017-11-13T00:40:14.846Z,0
2017-11-13T00:41:15.166Z,0
2017-11-13T00:42:15.155Z,0
2017-11-13T00:43:15.170Z,0
2017-11-13T00:44:15.133Z,0
2017-11-13T00:45:15.140Z,0
2017-11-13T00:46:15.108Z,0
2017-11-13T00:47:15.085Z,0
2017-11-13T00:48:15.075Z,0
2017-11-13T00:49:15.058Z,0
2017-11-13T00:50:15.046Z,0
2017-11-13T00:51:15.038Z,0
2017-11-13T00:52:14.684Z,0
2017-11-13T00:53:15.006Z,0
2017-11-13T00:54:14.984Z,0
2017-11-13T00:55:14.968Z,0
2017-11-13T00:56:14.968Z,0
2017-11-13T00:57:14.623Z,0
2017-11-13T00:58:14.941Z,0
2017-11-13T00:59:14.931Z,0
2017-11-13T01:00:14.910Z,0
2017-11-13T01:01:14.892Z,0
2017-11-13T01:02:14.905Z,0
2017-11-13T01:03:14.554Z,0
2017-11-13T01:04:14.858Z,0
2017-11-13T01:05:14.842Z,0
2017-11-13T01:06:14.537Z,0
2017-11-13T01:07:14.829Z,0
2017-11-13T01:08:14.485Z,0
2017-11-13T01:09:14.793Z,0
2017-11-13T01:10:14.777Z,0
2017-11-13T01:11:14.445Z,0
2017-11-13T01:12:14.759Z,0
2017-11-13T01:13:14.739Z,0
2017-11-13T01:14:14.744Z,0
2017-11-13T01:15:14.392Z,0
2017-11-13T01:16:14.700Z,0
2017-11-13T01:17:14.367Z,0
2017-11-13T01:18:14.677Z,0
2017-11-13T01:19:14.669Z,0
2017-11-13T01:20:14.319Z,0
2017-11-13T01:21:14.307Z,0
2017-11-13T01:22:14.299Z,0
2017-11-13T01:23:14.281Z,0
2017-11-13T01:24:14.588Z,0
2017-11-13T01:25:14.580Z,0
2017-11-13T01:26:13.912Z,0
2017-11-13T01:27:14.555Z,0
2017-11-13T01:28:14.211Z,0
2017-11-13T01:29:14.517Z,0
2017-11-13T01:30:14.544Z,0
2017-11-13T01:31:14.177Z,0
2017-11-13T01:32:14.485Z,0
2017-11-13T01:33:14.136Z,0
2017-11-13T01:34:14.473Z,0
2017-11-13T01:35:14.127Z,0
2017-11-13T01:36:14.448Z,0
2017-11-13T01:37:14.420Z,0
2017-11-13T01:38:14.419Z,0
2017-11-13T01:39:14.394Z,0
2017-11-13T01:40:14.374Z,0
2017-11-13T01:41:14.361Z,0
2017-11-13T01:42:14.361Z,0
2017-11-13T01:43:14.007Z,0
2017-11-13T01:44:13.996Z,0
2017-11-13T01:45:14.330Z,0
2017-11-13T01:46:13.974Z,0
2017-11-13T01:47:14.286Z,0
2017-11-13T01:48:14.283Z,0
2017-11-13T01:49:13.959Z,0
2017-11-13T01:50:14.242Z,0
2017-11-13T01:51:14.225Z,0
2017-11-13T01:52:13.892Z,0
2017-11-13T01:53:14.203Z,0
2017-11-13T01:54:13.866Z,0
2017-11-13T01:55:14.170Z,0
2017-11-13T01:56:13.841Z,0
2017-11-13T01:57:14.148Z,0
2017-11-13T01:58:14.148Z,0
2017-11-13T01:59:14.137Z,0
2017-11-13T02:00:14.136Z,0
2017-11-13T02:01:14.100Z,0
2017-11-13T02:02:13.781Z,0
2017-11-13T02:03:13.742Z,0
2017-11-13T02:04:13.733Z,0
2017-11-13T02:05:14.057Z,0
2017-11-13T02:06:13.706Z,0
2017-11-13T02:07:14.039Z,0
2017-11-13T02:08:14.043Z,0
2017-11-13T02:09:13.996Z,0
2017-11-13T02:10:13.997Z,0
2017-11-13T02:11:13.980Z,0
2017-11-13T02:12:13.953Z,0
2017-11-13T02:13:13.615Z,0
2017-11-13T02:14:13.643Z,0
2017-11-13T02:15:13.921Z,0
2017-11-13T02:16:13.573Z,0
2017-11-13T02:17:13.947Z,0
2017-11-13T02:18:13.563Z,0
2017-11-13T02:19:13.865Z,0
2017-11-13T02:20:13.848Z,0
2017-11-13T02:21:13.838Z,0
2017-11-13T02:22:13.835Z,0
2017-11-13T02:23:13.811Z,0
2017-11-13T02:24:13.800Z,0
2017-11-13T02:25:13.469Z,0
2017-11-13T02:26:13.793Z,0
2017-11-13T02:27:13.757Z,0
2017-11-13T02:28:13.759Z,0
2017-11-13T02:29:13.767Z,0
2017-11-13T02:30:13.738Z,0
2017-11-13T02:31:13.712Z,0
2017-11-13T02:32:13.728Z,0
2017-11-13T02:33:13.725Z,0
2017-11-13T02:34:13.678Z,0
2017-11-13T02:35:13.656Z,0
2017-11-13T02:36:13.641Z,0
2017-11-13T02:37:13.626Z,0
2017-11-13T02:38:13.625Z,0
2017-11-13T02:39:13.312Z,0
2017-11-13T02:40:13.291Z,0
2017-11-13T02:41:13.258Z,0
2017-11-13T02:42:13.563Z,0
2017-11-13T02:43:13.541Z,0
2017-11-13T02:44:13.225Z,0
2017-11-13T02:45:13.523Z,0
2017-11-13T02:46:13.513Z,0
2017-11-13T02:47:13.491Z,0
2017-11-13T02:48:13.175Z,0
2017-11-13T02:49:13.146Z,0
2017-11-13T02:50:13.456Z,0
2017-11-13T02:51:13.464Z,0
2017-11-13T02:52:13.444Z,0
2017-11-13T02:53:13.420Z,0
2017-11-13T02:54:13.425Z,0
2017-11-13T02:55:13.075Z,0
2017-11-13T02:56:13.059Z,0
2017-11-13T02:57:13.382Z,0
2017-11-13T02:58:13.050Z,0
2017-11-13T02:59:13.365Z,0
2017-11-13T03:00:13.015Z,0
2017-11-13T03:01:12.993Z,0
2017-11-13T03:02:12.989Z,0
2017-11-13T03:03:13.324Z,0
2017-11-13T03:04:12.953Z,0
2017-11-13T03:05:13.264Z,0
2017-11-13T03:06:13.253Z,0
2017-11-13T03:07:13.240Z,0
2017-11-13T03:08:12.919Z,0
2017-11-13T03:09:13.221Z,0
2017-11-13T03:10:12.554Z,0
2017-11-13T03:11:13.244Z,0
2017-11-13T03:12:12.855Z,0
2017-11-13T03:13:13.164Z,0
2017-11-13T03:14:12.832Z,0
2017-11-13T03:15:12.829Z,0
2017-11-13T03:16:13.161Z,0
2017-11-13T03:17:13.118Z,0
2017-11-13T03:18:13.117Z,0
2017-11-13T03:19:13.088Z,0
2017-11-13T03:20:13.082Z,0
2017-11-13T03:21:13.095Z,0
2017-11-13T03:22:13.065Z,0
2017-11-13T03:23:13.046Z,0
2017-11-13T03:24:13.040Z,0
2017-11-13T03:25:13.015Z,0
2017-11-13T03:26:12.997Z,0
2017-11-13T03:27:12.989Z,0
2017-11-13T03:28:11.997Z,0
2017-11-13T03:29:12.969Z,0
2017-11-13T03:30:12.638Z,0
2017-11-13T03:31:12.970Z,0
2017-11-13T03:32:12.609Z,0
2017-11-13T03:33:12.930Z,0
2017-11-13T03:34:12.581Z,0
2017-11-13T03:35:12.888Z,0
2017-11-13T03:36:12.551Z,0
2017-11-13T03:37:12.879Z,0
2017-11-13T03:38:12.863Z,0
2017-11-13T03:39:12.851Z,0
2017-11-13T03:40:12.833Z,0
2017-11-13T03:41:12.485Z,0
2017-11-13T03:42:12.151Z,0
2017-11-13T03:43:12.802Z,0
2017-11-13T03:44:12.778Z,0
2017-11-13T03:45:12.757Z,0
2017-11-13T03:46:12.425Z,0
2017-11-13T03:47:12.407Z,0
2017-11-13T03:48:12.395Z,0
2017-11-13T03:49:12.712Z,0
2017-11-13T03:50:12.377Z,0
2017-11-13T03:51:12.693Z,0
2017-11-13T03:52:12.371Z,0
2017-11-13T03:53:12.668Z,0
2017-11-13T03:54:12.004Z,0
2017-11-13T03:55:12.308Z,0
2017-11-13T03:56:12.632Z,0
2017-11-13T03:57:12.288Z,0
2017-11-13T03:58:12.604Z,0
2017-11-13T03:59:12.586Z,0
2017-11-13T04:00:12.262Z,0
2017-11-13T04:01:12.249Z,0
2017-11-13T04:02:12.557Z,0
2017-11-13T04:03:12.530Z,0
2017-11-13T04:04:12.558Z,0
2017-11-13T04:05:12.542Z,0
2017-11-13T04:06:12.504Z,0
2017-11-13T04:07:12.484Z,0
2017-11-13T04:08:12.171Z,0
2017-11-13T04:09:12.138Z,0
2017-11-13T04:10:12.149Z,0
2017-11-13T04:11:12.108Z,0
2017-11-13T04:12:12.426Z,0
2017-11-13T04:13:12.410Z,0
2017-11-13T04:14:12.410Z,0
2017-11-13T04:15:12.406Z,0
2017-11-13T04:16:12.379Z,0
2017-11-13T04:17:12.456Z,0
2017-11-13T04:18:12.354Z,0
2017-11-13T04:19:12.364Z,0
2017-11-13T04:20:12.014Z,0
2017-11-13T04:21:12.306Z,0
2017-11-13T04:22:12.298Z,0
2017-11-13T04:23:12.293Z,0
2017-11-13T04:24:12.274Z,0
2017-11-13T04:25:12.271Z,0
2017-11-13T04:26:11.939Z,0
2017-11-13T04:27:12.233Z,0
2017-11-13T04:28:12.220Z,0
2017-11-13T04:29:12.212Z,0
2017-11-13T04:30:11.870Z,0
2017-11-13T04:31:12.179Z,0
2017-11-13T04:32:12.164Z,0
2017-11-13T04:33:11.838Z,0
2017-11-13T04:34:12.154Z,0
2017-11-13T04:35:12.145Z,0
2017-11-13T04:36:11.478Z,0
2017-11-13T04:37:12.110Z,0
2017-11-13T04:38:11.449Z,0
2017-11-13T04:39:11.763Z,0
2017-11-13T04:40:11.421Z,0
2017-11-13T04:41:11.742Z,0
2017-11-13T04:42:11.726Z,0
2017-11-13T04:43:12.092Z,0
2017-11-13T04:44:12.025Z,0
2017-11-13T04:45:11.683Z,0
2017-11-13T04:46:11.686Z,0
2017-11-13T04:47:12.023Z,0
2017-11-13T04:48:11.672Z,0
2017-11-13T04:49:11.963Z,0
2017-11-13T04:50:11.620Z,0
2017-11-13T04:51:11.941Z,0
2017-11-13T04:52:11.928Z,0
2017-11-13T04:53:11.575Z,0
2017-11-13T04:54:11.904Z,0
2017-11-13T04:55:11.937Z,0
2017-11-13T04:56:11.551Z,0
2017-11-13T04:57:11.860Z,0
2017-11-13T04:58:11.537Z,0
2017-11-13T04:59:11.843Z,0
2017-11-13T05:00:11.837Z,0
2017-11-13T05:01:11.482Z,0
2017-11-13T05:02:11.798Z,0
2017-11-13T05:03:11.781Z,0
2017-11-13T05:04:11.793Z,0
2017-11-13T05:05:11.771Z,0
2017-11-13T05:06:11.751Z,0
2017-11-13T05:07:11.413Z,0
2017-11-13T05:08:11.719Z,0
2017-11-13T05:09:11.720Z,0
2017-11-13T05:10:11.056Z,0
2017-11-13T05:11:11.360Z,0
2017-11-13T05:12:11.680Z,0
2017-11-13T05:13:11.331Z,0
2017-11-13T05:14:11.657Z,0
2017-11-13T05:15:11.636Z,0
2017-11-13T05:16:11.321Z,0
2017-11-13T05:17:11.623Z,0
2017-11-13T05:18:11.275Z,0
2017-11-13T05:19:11.265Z,0
2017-11-13T05:20:11.591Z,0
2017-11-13T05:21:11.246Z,0
2017-11-13T05:22:11.228Z,0
2017-11-13T05:23:11.544Z,0
2017-11-13T05:24:11.539Z,0
2017-11-13T05:25:11.533Z,0
2017-11-13T05:26:11.502Z,0
2017-11-13T05:27:11.490Z,0
2017-11-13T05:28:11.170Z,0
2017-11-13T05:29:11.473Z,0
2017-11-13T05:30:11.454Z,0
2017-11-13T05:31:11.447Z,0
2017-11-13T05:32:10.775Z,0
2017-11-13T05:33:11.445Z,0
2017-11-13T05:34:11.407Z,0
2017-11-13T05:35:11.395Z,0
2017-11-13T05:36:11.386Z,0
2017-11-13T05:37:11.402Z,0
2017-11-13T05:38:11.367Z,0
2017-11-13T05:39:11.348Z,0
2017-11-13T05:40:11.022Z,0
2017-11-13T05:41:11.320Z,0
2017-11-13T05:42:11.309Z,0
2017-11-13T05:43:11.298Z,0
2017-11-13T05:44:11.290Z,0
2017-11-13T05:45:11.276Z,0
2017-11-13T05:46:10.957Z,0
2017-11-13T05:47:11.256Z,0
2017-11-13T05:48:11.244Z,0
2017-11-13T05:49:10.896Z,0
2017-11-13T05:50:10.899Z,0
2017-11-13T05:51:10.897Z,0
2017-11-13T05:52:11.213Z,0
2017-11-13T05:53:11.175Z,0
2017-11-13T05:54:11.166Z,0
2017-11-13T05:55:10.846Z,0
2017-11-13T05:56:10.833Z,0
2017-11-13T05:57:11.147Z,0
2017-11-13T05:58:11.109Z,0
2017-11-13T05:59:10.779Z,0
2017-11-13T06:00:10.772Z,0
2017-11-13T06:01:11.084Z,0
2017-11-13T06:02:10.745Z,0
2017-11-13T06:03:11.056Z,0
2017-11-13T06:04:11.041Z,0
2017-11-13T06:05:11.032Z,0
2017-11-13T06:06:10.694Z,0
2017-11-13T06:07:10.678Z,0
2017-11-13T06:08:10.993Z,0
2017-11-13T06:09:10.980Z,0
2017-11-13T06:10:10.639Z,0
2017-11-13T06:11:10.632Z,0
2017-11-13T06:12:10.942Z,0
2017-11-13T06:13:10.932Z,0
2017-11-13T06:14:10.916Z,0
2017-11-13T06:15:10.954Z,0
2017-11-13T06:16:10.914Z,0
2017-11-13T06:17:10.896Z,0
2017-11-13T06:18:10.865Z,0
2017-11-13T06:19:10.866Z,0
2017-11-13T06:20:10.552Z,0
2017-11-13T06:21:09.857Z,0
2017-11-13T06:22:10.834Z,0
2017-11-13T06:23:10.823Z,0
2017-11-13T06:24:10.146Z,0
2017-11-13T06:25:10.463Z,0
2017-11-13T06:26:10.486Z,5
2017-11-13T06:27:10.441Z,5
2017-11-13T06:28:10.100Z,5
2017-11-13T06:29:10.749Z,5
2017-11-13T06:30:10.405Z,5
2017-11-13T06:31:10.409Z,10
2017-11-13T06:32:10.719Z,10
2017-11-13T06:33:10.366Z,10
2017-11-13T06:34:10.677Z,10
2017-11-13T06:35:10.332Z,10
2017-11-13T06:36:10.648Z,10
2017-11-13T06:37:10.644Z,10
2017-11-13T06:38:10.628Z,10
2017-11-13T06:39:10.293Z,10
2017-11-13T06:40:10.282Z,10
2017-11-13T06:41:10.589Z,15
2017-11-13T06:42:10.257Z,15
2017-11-13T06:43:10.239Z,15
2017-11-13T06:44:10.575Z,20
2017-11-13T06:45:10.546Z,25
2017-11-13T06:46:10.548Z,25
2017-11-13T06:47:10.521Z,30
2017-11-13T06:48:10.195Z,30
2017-11-13T06:49:10.503Z,30
2017-11-13T06:50:10.509Z,30
2017-11-13T06:51:10.465Z,35
2017-11-13T06:52:09.815Z,40
2017-11-13T06:53:10.137Z,40
2017-11-13T06:54:10.437Z,40
2017-11-13T06:55:10.096Z,35
2017-11-13T06:56:10.419Z,35
2017-11-13T06:57:10.429Z,35
2017-11-13T06:58:09.735Z,35
2017-11-13T06:59:10.373Z,35
2017-11-13T07:00:10.368Z,40
2017-11-13T07:01:10.401Z,40
2017-11-13T07:02:10.891Z,40
2017-11-13T07:03:10.333Z,40
2017-11-13T07:04:09.997Z,40
2017-11-13T07:05:09.976Z,40
2017-11-13T07:06:09.966Z,40
2017-11-13T07:07:09.957Z,40
2017-11-13T07:08:10.290Z,35
2017-11-13T07:09:09.937Z,35
2017-11-13T07:10:09.920Z,40
2017-11-13T07:11:10.246Z,40
2017-11-13T07:12:10.223Z,45
2017-11-13T07:13:10.244Z,45
2017-11-13T07:14:09.896Z,45
2017-11-13T07:15:09.854Z,45
2017-11-13T07:16:10.178Z,40
2017-11-13T07:17:09.867Z,35
2017-11-13T07:18:10.146Z,35
2017-11-13T07:19:10.148Z,35
2017-11-13T07:20:09.808Z,40
2017-11-13T07:21:09.800Z,35
2017-11-13T07:22:09.777Z,30
2017-11-13T07:23:10.094Z,30
2017-11-13T07:24:09.754Z,30
2017-11-13T07:25:10.074Z,35
2017-11-13T07:26:09.407Z,40
2017-11-13T07:27:10.056Z,50
2017-11-13T07:28:10.036Z,55
2017-11-13T07:29:10.044Z,55
2017-11-13T07:30:10.015Z,55
2017-11-13T07:31:10.000Z,55
2017-11-13T07:32:09.702Z,60
2017-11-13T07:33:09.649Z,60
2017-11-13T07:34:09.970Z,60
2017-11-13T07:35:09.974Z,60
2017-11-13T07:36:09.666Z,60
2017-11-13T07:37:09.931Z,60
2017-11-13T07:38:09.599Z,60
2017-11-13T07:39:09.953Z,65
2017-11-13T07:40:09.571Z,75
2017-11-13T07:41:09.572Z,70
2017-11-13T07:42:09.875Z,70
2017-11-13T07:43:09.562Z,80
2017-11-13T07:44:09.202Z,85
2017-11-13T07:45:09.873Z,75
2017-11-13T07:46:09.515Z,65
2017-11-13T07:47:09.832Z,60
2017-11-13T07:48:09.514Z,55
2017-11-13T07:49:09.481Z,65
2017-11-13T07:50:09.784Z,70
2017-11-13T07:51:09.776Z,70
2017-11-13T07:52:09.479Z,70
2017-11-13T07:53:09.749Z,70
2017-11-13T07:54:09.745Z,75
2017-11-13T07:55:09.406Z,75
2017-11-13T07:56:09.073Z,95
2017-11-13T07:57:09.712Z,90
2017-11-13T07:58:09.378Z,75
2017-11-13T07:59:09.363Z,80
2017-11-13T08:00:10.065Z,90
2017-11-13T08:01:09.345Z,70
2017-11-13T08:02:09.664Z,85
2017-11-13T08:03:09.317Z,70
2017-11-13T08:04:09.645Z,70
2017-11-13T08:05:09.294Z,70
2017-11-13T08:06:09.291Z,95
2017-11-13T08:07:09.348Z,105
2017-11-13T08:08:09.688Z,85
2017-11-13T08:09:09.606Z,110
2017-11-13T08:10:09.623Z,140
2017-11-13T08:11:08.988Z,115
2017-11-13T08:12:09.597Z,100
2017-11-13T08:13:09.581Z,130
2017-11-13T08:14:09.572Z,140
2017-11-13T08:15:09.585Z,120
2017-11-13T08:16:09.844Z,120
2017-11-13T08:17:10.277Z,120
2017-11-13T08:18:09.530Z,120
2017-11-13T08:19:09.472Z,125
2017-11-13T08:20:09.142Z,130
2017-11-13T08:21:09.136Z,115
2017-11-13T08:22:09.481Z,100
2017-11-13T08:23:09.428Z,125
2017-11-13T08:24:09.456Z,170
2017-11-13T08:25:09.085Z,230
2017-11-13T08:26:09.422Z,190
2017-11-13T08:27:09.398Z,195
2017-11-13T08:28:09.392Z,215
2017-11-13T08:29:08.730Z,210
2017-11-13T08:30:09.360Z,185
2017-11-13T08:31:09.027Z,190
2017-11-13T08:32:09.008Z,175
2017-11-13T08:33:09.669Z,190
2017-11-13T08:34:08.669Z,160
2017-11-13T08:35:08.985Z,140
2017-11-13T08:36:08.969Z,140
2017-11-13T08:37:09.279Z,125
2017-11-13T08:38:09.304Z,100
2017-11-13T08:39:09.271Z,80
2017-11-13T08:40:08.940Z,95
2017-11-13T08:41:09.237Z,130
2017-11-13T08:42:09.244Z,115
2017-11-13T08:43:08.900Z,100
2017-11-13T08:44:09.300Z,80
2017-11-13T08:45:09.224Z,85
2017-11-13T08:46:09.264Z,95
2017-11-13T08:47:09.250Z,105
2017-11-13T08:48:09.217Z,120
2017-11-13T08:49:08.846Z,130
2017-11-13T08:50:09.191Z,130
2017-11-13T08:51:08.581Z,150
2017-11-13T08:52:09.239Z,130
2017-11-13T08:53:09.203Z,115
2017-11-13T08:54:08.491Z,90
2017-11-13T08:55:09.154Z,75
2017-11-13T08:56:08.777Z,80
2017-11-13T08:57:09.083Z,95
2017-11-13T08:58:08.759Z,95
2017-11-13T08:59:09.078Z,105
2017-11-13T09:00:08.727Z,95
2017-11-13T09:01:08.816Z,95
2017-11-13T09:02:08.720Z,70
2017-11-13T09:03:09.031Z,75
2017-11-13T09:04:09.027Z,90
2017-11-13T09:05:08.708Z,85
2017-11-13T09:06:08.999Z,85
2017-11-13T09:07:08.981Z,110
2017-11-13T09:08:08.658Z,120
2017-11-13T09:09:08.997Z,125
2017-11-13T09:10:08.970Z,100
2017-11-13T09:11:08.635Z,80
2017-11-13T09:12:08.632Z,70
2017-11-13T09:13:08.645Z,70
2017-11-13T09:14:08.292Z,90
2017-11-13T09:15:08.261Z,90
2017-11-13T09:16:08.939Z,95
2017-11-13T09:17:08.889Z,95
2017-11-13T09:18:08.558Z,80
2017-11-13T09:19:08.855Z,80
2017-11-13T09:20:08.850Z,85
2017-11-13T09:21:08.611Z,90
2017-11-13T09:22:08.520Z,95
2017-11-13T09:23:08.507Z,115
2017-11-13T09:24:08.495Z,125
2017-11-13T09:25:08.494Z,120
2017-11-13T09:26:08.144Z,115
2017-11-13T09:27:08.493Z,110
2017-11-13T09:28:08.760Z,95
2017-11-13T09:29:08.431Z,80
2017-11-13T09:30:08.755Z,85
2017-11-13T09:31:08.450Z,80
2017-11-13T09:32:08.090Z,90
2017-11-13T09:33:08.788Z,100
2017-11-13T09:34:08.777Z,95
2017-11-13T09:35:08.712Z,85
2017-11-13T09:36:08.727Z,95
2017-11-13T09:37:08.367Z,100
2017-11-13T09:38:08.711Z,95
2017-11-13T09:39:08.666Z,90
2017-11-13T09:40:08.649Z,80
2017-11-13T09:41:08.324Z,75
2017-11-13T09:42:08.640Z,75
2017-11-13T09:43:08.638Z,90
2017-11-13T09:44:08.310Z,90
2017-11-13T09:45:08.865Z,120
2017-11-13T09:46:08.286Z,135
2017-11-13T09:47:08.605Z,130
2017-11-13T09:48:08.976Z,125
2017-11-13T09:49:08.610Z,125
2017-11-13T09:50:08.606Z,130
2017-11-13T09:51:08.300Z,140
2017-11-13T09:52:08.240Z,140
2017-11-13T09:53:08.283Z,125
2017-11-13T09:54:07.923Z,120
2017-11-13T09:55:08.251Z,130
2017-11-13T09:56:08.228Z,125
2017-11-13T09:57:08.865Z,120
2017-11-13T09:58:08.229Z,125
2017-11-13T09:59:08.619Z,115
2017-11-13T10:00:09.242Z,105
2017-11-13T10:01:08.892Z,110
2017-11-13T10:02:08.611Z,115
2017-11-13T10:03:08.603Z,90
2017-11-13T10:04:08.440Z,115
2017-11-13T10:05:08.813Z,105
2017-11-13T10:06:08.199Z,90
2017-11-13T10:07:07.780Z,80
2017-11-13T10:08:08.401Z,90
2017-11-13T10:09:08.541Z,95
2017-11-13T10:10:08.098Z,105
2017-11-13T10:11:07.734Z,105
2017-11-13T10:12:08.431Z,105
2017-11-13T10:13:08.456Z,115
2017-11-13T10:14:08.378Z,135
2017-11-13T10:15:08.101Z,125
2017-11-13T10:16:08.355Z,120
2017-11-13T10:17:08.434Z,120
2017-11-13T10:18:07.981Z,130
2017-11-13T10:19:08.281Z,130
2017-11-13T10:20:08.043Z,125
2017-11-13T10:21:07.596Z,125
2017-11-13T10:22:07.893Z,110
2017-11-13T10:23:08.234Z,110
2017-11-13T10:24:07.948Z,170
2017-11-13T10:25:07.883Z,195
2017-11-13T10:26:07.861Z,140
2017-11-13T10:27:08.483Z,155
2017-11-13T10:28:08.187Z,150
2017-11-13T10:29:08.083Z,165
2017-11-13T10:30:07.891Z,200
2017-11-13T10:31:07.997Z,245
2017-11-13T10:32:07.933Z,235
2017-11-13T10:33:08.206Z,180
2017-11-13T10:34:08.200Z,180
2017-11-13T10:35:07.493Z,215
2017-11-13T10:36:07.888Z,225
2017-11-13T10:37:08.158Z,245
2017-11-13T10:38:07.791Z,220
2017-11-13T10:39:08.167Z,210
2017-11-13T10:40:07.837Z,210
2017-11-13T10:41:07.816Z,210
2017-11-13T10:42:08.134Z,175
2017-11-13T10:43:08.075Z,160
2017-11-13T10:44:08.054Z,145
2017-11-13T10:45:08.350Z,130
2017-11-13T10:46:07.460Z,120
2017-11-13T10:47:08.065Z,105
2017-11-13T10:48:08.076Z,95
2017-11-13T10:49:07.733Z,90
2017-11-13T10:50:07.749Z,85
2017-11-13T10:51:07.684Z,90
2017-11-13T10:52:08.012Z,95
2017-11-13T10:53:07.954Z,100
2017-11-13T10:54:07.932Z,105
2017-11-13T10:55:07.927Z,135
2017-11-13T10:56:07.256Z,175
2017-11-13T10:57:07.898Z,190
2017-11-13T10:58:07.834Z,200
2017-11-13T10:59:07.862Z,205
2017-11-13T11:00:07.214Z,190
2017-11-13T11:01:07.572Z,170
2017-11-13T11:02:07.527Z,150
2017-11-13T11:03:07.877Z,150
2017-11-13T11:04:07.510Z,135
2017-11-13T11:05:07.492Z,150
2017-11-13T11:06:07.858Z,185
2017-11-13T11:07:07.862Z,200
2017-11-13T11:08:07.454Z,200
2017-11-13T11:09:07.789Z,200
2017-11-13T11:10:07.796Z,195
2017-11-13T11:11:07.705Z,190
2017-11-13T11:12:07.775Z,185
2017-11-13T11:13:07.924Z,165
2017-11-13T11:14:07.426Z,145
2017-11-13T11:15:07.416Z,145
2017-11-13T11:16:07.745Z,155
2017-11-13T11:17:07.718Z,175
2017-11-13T11:18:07.745Z,190
2017-11-13T11:19:07.736Z,210
2017-11-13T11:20:07.782Z,225
2017-11-13T11:21:07.700Z,220
2017-11-13T11:22:07.662Z,195
2017-11-13T11:23:07.362Z,170
2017-11-13T11:24:07.659Z,155
2017-11-13T11:25:07.637Z,175
2017-11-13T11:26:06.978Z,175
2017-11-13T11:27:07.665Z,170
2017-11-13T11:28:07.612Z,155
2017-11-13T11:29:07.895Z,150
2017-11-13T11:30:07.613Z,150
2017-11-13T11:31:07.311Z,160
2017-11-13T11:32:07.647Z,170
2017-11-13T11:33:07.590Z,180
2017-11-13T11:34:07.302Z,185
2017-11-13T11:35:07.553Z,185
2017-11-13T11:36:07.251Z,190
2017-11-13T11:37:07.255Z,180
2017-11-13T11:38:07.794Z,185
2017-11-13T11:39:07.212Z,205
2017-11-13T11:40:07.537Z,220
2017-11-13T11:41:07.514Z,205
2017-11-13T11:42:07.528Z,200
2017-11-13T11:43:07.491Z,220
2017-11-13T11:44:07.218Z,225
2017-11-13T11:45:07.163Z,220
2017-11-13T11:46:07.137Z,235
2017-11-13T11:47:07.462Z,245
2017-11-13T11:48:07.117Z,250
2017-11-13T11:49:07.446Z,220
2017-11-13T11:50:07.428Z,200
2017-11-13T11:51:07.453Z,185
2017-11-13T11:52:07.310Z,175
2017-11-13T11:53:07.394Z,165
2017-11-13T11:54:07.415Z,160
2017-11-13T11:55:07.379Z,175
2017-11-13T11:56:07.429Z,195
2017-11-13T11:57:07.474Z,220
2017-11-13T11:58:07.083Z,215
2017-11-13T11:59:07.435Z,195
2017-11-13T12:00:07.690Z,190
2017-11-13T12:01:07.682Z,170
2017-11-13T12:02:07.046Z,160
2017-11-13T12:03:07.311Z,150
2017-11-13T12:04:07.063Z,150
2017-11-13T12:05:07.348Z,150
2017-11-13T12:06:06.648Z,160
2017-11-13T12:07:07.397Z,170
2017-11-13T12:08:07.250Z,180
2017-11-13T12:09:07.243Z,180
2017-11-13T12:10:06.910Z,175
2017-11-13T12:11:07.295Z,155
2017-11-13T12:12:07.219Z,145
2017-11-13T12:13:07.238Z,145
2017-11-13T12:14:06.942Z,150
2017-11-13T12:15:07.186Z,145
2017-11-13T12:16:06.900Z,145
2017-11-13T12:17:07.170Z,140
2017-11-13T12:18:07.211Z,140
2017-11-13T12:19:07.221Z,140
2017-11-13T12:20:06.878Z,140
2017-11-13T12:21:07.288Z,145
2017-11-13T12:22:07.288Z,145
2017-11-13T12:23:07.293Z,145
2017-11-13T12:24:07.264Z,155
2017-11-13T12:25:06.850Z,155
2017-11-13T12:26:07.156Z,145
2017-11-13T12:27:06.523Z,140
2017-11-13T12:28:06.780Z,140
2017-11-13T12:29:07.124Z,140
2017-11-13T12:30:06.771Z,140
2017-11-13T12:31:06.958Z,140
2017-11-13T12:32:07.274Z,145
2017-11-13T12:33:07.023Z,150
2017-11-13T12:34:07.069Z,160
2017-11-13T12:35:07.253Z,170
2017-11-13T12:36:07.006Z,175
2017-11-13T12:37:06.722Z,170
2017-11-13T12:38:06.643Z,170
2017-11-13T12:39:07.003Z,170
2017-11-13T12:40:06.981Z,160
2017-11-13T12:41:06.963Z,145
2017-11-13T12:42:06.634Z,140
2017-11-13T12:43:06.967Z,140
2017-11-13T12:44:06.916Z,155
2017-11-13T12:45:06.586Z,170
2017-11-13T12:46:06.599Z,155
2017-11-13T12:47:06.555Z,170
2017-11-13T12:48:06.888Z,175
2017-11-13T12:49:06.549Z,150
2017-11-13T12:50:06.536Z,140
2017-11-13T12:51:06.512Z,145
2017-11-13T12:52:06.552Z,155
2017-11-13T12:53:06.849Z,175
2017-11-13T12:54:06.818Z,180
2017-11-13T12:55:06.833Z,160
2017-11-13T12:56:06.799Z,145
2017-11-13T12:57:06.808Z,150
2017-11-13T12:58:06.779Z,165
2017-11-13T12:59:06.448Z,185
2017-11-13T13:00:07.119Z,195
2017-11-13T13:01:06.425Z,220
2017-11-13T13:02:06.440Z,200
2017-11-13T13:03:06.983Z,180
2017-11-13T13:04:06.376Z,185
2017-11-13T13:05:06.765Z,190
2017-11-13T13:06:06.758Z,175
2017-11-13T13:07:06.684Z,155
2017-11-13T13:08:06.693Z,140
2017-11-13T13:09:06.663Z,130
2017-11-13T13:10:06.667Z,130
2017-11-13T13:11:06.324Z,125
2017-11-13T13:12:05.676Z,125
2017-11-13T13:13:05.981Z,125
2017-11-13T13:14:06.297Z,125
2017-11-13T13:15:06.292Z,125
2017-11-13T13:16:06.627Z,125
2017-11-13T13:17:06.256Z,130
2017-11-13T13:18:06.275Z,135
2017-11-13T13:19:06.578Z,145
2017-11-13T13:20:06.229Z,150
2017-11-13T13:21:06.569Z,150
2017-11-13T13:22:06.560Z,150
2017-11-13T13:23:06.209Z,135
2017-11-13T13:24:06.189Z,125
2017-11-13T13:25:06.503Z,130
2017-11-13T13:26:06.199Z,130
2017-11-13T13:27:06.547Z,130
2017-11-13T13:28:06.831Z,135
2017-11-13T13:29:06.505Z,135
2017-11-13T13:30:06.718Z,140
2017-11-13T13:31:06.159Z,145
2017-11-13T13:32:06.227Z,130
2017-11-13T13:33:06.121Z,115
2017-11-13T13:34:06.708Z,95
2017-11-13T13:35:05.769Z,95
2017-11-13T13:36:06.121Z,95
2017-11-13T13:37:06.460Z,80
2017-11-13T13:38:06.375Z,70
2017-11-13T13:39:06.385Z,85
2017-11-13T13:40:05.708Z,110
2017-11-13T13:41:06.370Z,140
2017-11-13T13:42:06.413Z,155
2017-11-13T13:43:06.014Z,145
2017-11-13T13:44:06.342Z,145
2017-11-13T13:45:05.700Z,140
2017-11-13T13:46:06.312Z,125
2017-11-13T13:47:05.980Z,115
2017-11-13T13:48:05.958Z,115
2017-11-13T13:49:05.952Z,115
2017-11-13T13:50:06.275Z,120
2017-11-13T13:51:05.927Z,120
2017-11-13T13:52:05.604Z,120
2017-11-13T13:53:06.263Z,105
2017-11-13T13:54:05.946Z,100
2017-11-13T13:55:05.925Z,100
2017-11-13T13:56:06.225Z,95
2017-11-13T13:57:05.876Z,95
2017-11-13T13:58:05.524Z,95
2017-11-13T13:59:05.895Z,95
2017-11-13T14:00:05.858Z,90
2017-11-13T14:01:06.287Z,90
2017-11-13T14:02:06.243Z,90
2017-11-13T14:03:05.817Z,90
2017-11-13T14:04:06.161Z,85
2017-11-13T14:05:06.374Z,85
2017-11-13T14:06:05.792Z,85
2017-11-13T14:07:06.305Z,85
2017-11-13T14:08:06.145Z,85
2017-11-13T14:09:06.116Z,85
2017-11-13T14:10:05.444Z,85
2017-11-13T14:11:05.419Z,90
2017-11-13T14:12:06.043Z,90
2017-11-13T14:13:06.077Z,85
2017-11-13T14:14:06.056Z,90
2017-11-13T14:15:06.022Z,105
2017-11-13T14:16:06.023Z,105
2017-11-13T14:17:06.008Z,105
2017-11-13T14:18:06.008Z,100
2017-11-13T14:19:05.314Z,100